Time;durP1;ratioP1;P1;durP2;ratioP2;P2;SDS_P1;SDS_P2;PMS_P1;PMS_P2;Temp;Humidity;BMP_temperature;BMP_pressure;BME280_temperature;BME280_humidity;BME280_pressure;Samples;Min_cycle;Max_cycle;Signal;HPM_P1;HPM_P2
2021/12/23 00:01:39;;;;;;;26.17;17.92;;;;;;;-3.58;100.00;96702.25;4990775;28;20069;-52
2021/12/23 00:04:09;;;;;;;30.45;18.15;;;;;;;-3.47;100.00;96703.59;4988720;28;20085;-48
2021/12/23 00:06:38;;;;;;;28.02;18.45;;;;;;;-3.48;100.00;96701.91;4991155;28;20387;-52
2021/12/23 00:09:07;;;;;;;27.42;17.90;;;;;;;-3.46;100.00;96700.97;4992098;28;20077;-54
2021/12/23 00:11:53;;;;;;;25.95;16.38;;;;;;;-4.22;100.00;96688.91;4984020;28;20078;-50
2021/12/23 00:14:22;;;;;;;30.42;17.70;;;;;;;-4.59;100.00;96692.63;4988649;28;20081;-54
2021/12/23 00:17:06;;;;;;;26.23;15.98;;;;;;;-4.80;100.00;96701.00;4984608;28;20038;-50
2021/12/23 00:19:47;;;;;;;22.45;15.43;;;;;;;-4.38;100.00;96693.69;4983343;28;20150;-55
2021/12/23 00:25:01;;;;;;;29.77;17.25;;;;;;;-3.81;100.00;96686.72;4986193;28;20077;-51
2021/12/23 00:27:31;;;;;;;25.75;16.38;;;;;;;-3.77;100.00;96684.88;4989388;28;20073;-50
2021/12/23 00:29:59;;;;;;;27.55;16.65;;;;;;;-3.84;100.00;96690.22;4978121;28;20067;-54
2021/12/23 00:32:28;;;;;;;26.45;16.67;;;;;;;-4.08;100.00;96679.00;4963260;28;20612;-48
2021/12/23 00:34:56;;;;;;;26.48;15.93;;;;;;;-4.71;100.00;96687.88;4964689;28;20082;-51
2021/12/23 00:37:25;;;;;;;26.23;16.30;;;;;;;-4.21;100.00;96679.47;4964557;28;20705;-53
2021/12/23 00:39:53;;;;;;;25.42;17.23;;;;;;;-4.39;100.00;96679.16;4992194;28;20085;-52
2021/12/23 00:42:22;;;;;;;33.65;19.63;;;;;;;-4.41;100.00;96686.06;4982659;28;20575;-49
2021/12/23 00:44:51;;;;;;;33.53;19.95;;;;;;;-4.70;100.00;96678.44;4987645;28;20069;-47
2021/12/23 00:47:20;;;;;;;35.78;20.38;;;;;;;-3.99;100.00;96674.44;4985612;28;20070;-53
2021/12/23 00:49:48;;;;;;;33.90;19.50;;;;;;;-3.92;100.00;96661.31;4991823;28;20076;-48
2021/12/23 00:52:23;;;;;;;34.35;18.85;;;;;;;-4.28;100.00;96668.50;4992205;28;20565;-54
2021/12/23 00:54:51;;;;;;;33.53;20.45;;;;;;;-4.51;100.00;96665.81;4990024;28;20082;-57
2021/12/23 00:57:26;;;;;;;33.40;19.40;;;;;;;-4.45;100.00;96656.19;4968091;28;20078;-53
2021/12/23 00:59:56;;;;;;;32.72;17.50;;;;;;;-4.13;100.00;96657.72;4966733;28;20066;-54
2021/12/23 01:02:29;;;;;;;31.33;18.20;;;;;;;-4.04;100.00;96656.56;4976776;28;20069;-56
2021/12/23 01:04:59;;;;;;;31.63;19.05;;;;;;;-4.20;100.00;96658.78;4980717;28;20074;-49
2021/12/23 01:07:27;;;;;;;32.47;20.02;;;;;;;-4.03;100.00;96653.09;4996950;28;20524;-55
2021/12/23 01:09:56;;;;;;;33.80;18.42;;;;;;;-4.32;100.00;96648.91;4990372;28;20074;-55
2021/12/23 01:12:29;;;;;;;30.85;18.13;;;;;;;-4.40;100.00;96649.16;4984936;28;20074;-56
2021/12/23 01:15:11;;;;;;;25.23;16.27;;;;;;;-4.42;100.00;96644.94;4984721;28;20125;-54
2021/12/23 01:17:53;;;;;;;26.33;15.57;;;;;;;-4.46;100.00;96651.09;4988141;28;20077;-55
2021/12/23 01:20:26;;;;;;;26.30;16.15;;;;;;;-4.48;100.00;96653.69;4989023;28;20062;-52
2021/12/23 01:22:55;;;;;;;25.40;15.88;;;;;;;-4.43;100.00;96648.44;4979584;28;20085;-52
2021/12/23 01:25:24;;;;;;;28.40;17.02;;;;;;;-4.22;100.00;96662.34;4967324;28;20078;-56
2021/12/23 01:27:53;;;;;;;26.27;16.55;;;;;;;-4.25;100.00;96667.59;4989186;28;20085;-57
2021/12/23 01:30:24;;;;;;;27.38;16.23;;;;;;;-3.91;100.00;96663.00;4967288;28;20075;-57
2021/12/23 01:32:54;;;;;;;25.13;16.67;;;;;;;-4.23;100.00;96668.34;4958190;28;20485;-59
2021/12/23 01:35:23;;;;;;;28.63;16.67;;;;;;;-3.93;100.00;96658.78;4973725;28;20074;-54
2021/12/23 01:37:52;;;;;;;30.92;17.70;;;;;;;-3.64;100.00;96670.69;4988980;28;20092;-57
2021/12/23 01:40:24;;;;;;;28.38;16.38;;;;;;;-3.80;100.00;96674.66;4987891;28;20074;-55
2021/12/23 01:42:52;;;;;;;26.48;16.05;;;;;;;-3.60;100.00;96665.34;4992851;28;20094;-54
2021/12/23 01:45:26;;;;;;;28.27;16.35;;;;;;;-3.61;100.00;96670.59;4984865;28;20093;-54
2021/12/23 01:47:54;;;;;;;27.67;16.52;;;;;;;-3.49;100.00;96666.72;4984365;28;20065;-58
2021/12/23 01:50:26;;;;;;;25.80;16.23;;;;;;;-3.91;100.00;96668.16;4983816;28;20531;-56
2021/12/23 01:52:55;;;;;;;25.83;17.38;;;;;;;-3.79;100.00;96663.47;4980059;28;20074;-56
2021/12/23 01:55:23;;;;;;;27.17;17.10;;;;;;;-4.56;100.00;96671.13;4966697;28;20085;-56
2021/12/23 01:57:52;;;;;;;26.98;15.63;;;;;;;-4.93;100.00;96672.22;4965897;28;20086;-54
2021/12/23 02:00:27;;;;;;;25.88;15.77;;;;;;;-4.40;100.00;96664.59;4965283;28;20111;-54
2021/12/23 02:02:55;;;;;;;25.73;16.58;;;;;;;-4.17;100.00;96663.84;4980950;28;20065;-52
2021/12/23 02:05:25;;;;;;;31.02;17.23;;;;;;;-3.93;100.00;96643.31;4987950;28;20076;-55
2021/12/23 02:07:53;;;;;;;29.48;17.98;;;;;;;-4.27;100.00;96647.00;4980274;28;20077;-55
2021/12/23 02:10:22;;;;;;;28.50;18.23;;;;;;;-3.75;100.00;96637.56;4964658;28;20093;-55
2021/12/23 02:12:51;;;;;;;35.92;18.50;;;;;;;-3.70;100.00;96637.38;4988374;28;20082;-53
2021/12/23 02:15:20;;;;;;;32.90;18.52;;;;;;;-3.34;100.00;96627.47;4968945;28;20070;-49
2021/12/23 02:17:50;;;;;;;28.38;17.38;;;;;;;-3.28;100.00;96629.84;4964562;28;20070;-56
2021/12/23 02:20:22;;;;;;;29.27;17.75;;;;;;;-3.24;100.00;96628.00;4978551;28;20093;-56
2021/12/23 02:22:50;;;;;;;35.05;17.48;;;;;;;-3.72;100.00;96616.81;4978340;28;20074;-50
2021/12/23 02:25:19;;;;;;;28.00;16.98;;;;;;;-3.68;100.00;96615.84;4964106;28;20086;-54
2021/12/23 02:27:48;;;;;;;25.92;17.13;;;;;;;-3.55;100.00;96621.38;4987056;28;20487;-49
2021/12/23 02:30:19;;;;;;;28.30;17.73;;;;;;;-3.39;100.00;96613.94;4985755;28;20070;-55
2021/12/23 02:32:47;;;;;;;26.08;16.60;;;;;;;-3.55;100.00;96617.97;4985803;28;20074;-55
2021/12/23 02:35:18;;;;;;;24.88;16.55;;;;;;;-3.88;100.00;96611.38;4974882;28;20078;-56
2021/12/23 02:37:47;;;;;;;;;;;;;;;-3.88;100.00;96611.38;4965619;28;20063;-54
2021/12/23 02:40:26;;;;;;;28.33;17.42;;;;;;;-3.48;100.00;96597.06;4952394;28;19969;-53
2021/12/23 02:42:55;;;;;;;27.35;16.90;;;;;;;-3.92;100.00;96596.09;4959940;28;20723;-55
2021/12/23 02:45:24;;;;;;;26.63;16.85;;;;;;;-3.52;100.00;96587.75;4982646;28;20093;-55
2021/12/23 02:47:52;;;;;;;33.08;18.30;;;;;;;-3.75;100.00;96587.75;4993583;28;20089;-54
2021/12/23 02:50:21;;;;;;;25.38;17.33;;;;;;;-3.49;100.00;96581.66;4983148;28;20070;-51
2021/12/23 02:52:50;;;;;;;28.15;17.58;;;;;;;-3.27;100.00;96579.13;4983164;28;20081;-55
2021/12/23 02:55:19;;;;;;;26.55;17.38;;;;;;;-3.30;100.00;96572.34;4983465;28;20078;-56
2021/12/23 02:57:48;;;;;;;29.42;16.83;;;;;;;-3.16;100.00;96595.03;4960740;28;20070;-55
2021/12/23 03:00:16;;;;;;;27.30;17.55;;;;;;;-3.74;100.00;96592.03;4978574;28;20080;-53
2021/12/23 03:02:45;;;;;;;29.80;17.88;;;;;;;-3.88;100.00;96589.94;4987099;28;20062;-48
2021/12/23 03:05:14;;;;;;;31.13;18.35;;;;;;;-3.35;100.00;96585.41;4985382;28;20061;-56
2021/12/23 03:07:42;;;;;;;30.35;18.73;;;;;;;-3.21;100.00;96576.31;4984051;28;20081;-57
2021/12/23 03:10:12;;;;;;;31.27;17.67;;;;;;;-3.05;100.00;96579.16;4987950;28;20078;-51
2021/12/23 03:12:40;;;;;;;30.15;18.70;;;;;;;-3.49;100.00;96574.75;4985715;28;20094;-51
2021/12/23 03:15:09;;;;;;;27.15;17.73;;;;;;;-3.58;100.00;96572.50;4986728;28;20066;-58
2021/12/23 03:17:38;;;;;;;29.95;18.27;;;;;;;-3.76;100.00;96570.59;4982642;28;20062;-56
2021/12/23 03:20:07;;;;;;;32.33;19.25;;;;;;;-3.94;100.00;96574.69;4982288;28;20336;-51
2021/12/23 03:22:36;;;;;;;31.38;18.20;;;;;;;-3.48;100.00;96563.53;4966697;28;20085;-55
2021/12/23 03:25:05;;;;;;;30.63;18.63;;;;;;;-3.15;100.00;96569.19;4967753;28;20085;-58
2021/12/23 03:27:34;;;;;;;29.17;18.15;;;;;;;-2.92;100.00;96572.63;4986615;28;20070;-54
2021/12/23 03:30:05;;;;;;;27.05;18.05;;;;;;;-3.14;100.00;96583.75;4989094;28;20065;-56
2021/12/23 03:32:33;;;;;;;;;;;;;;;-3.43;100.00;96577.13;4974960;28;20066;-52
2021/12/23 03:35:01;;;;;;;28.15;17.73;;;;;;;-3.04;100.00;96580.84;4959437;28;20633;-51
2021/12/23 03:37:30;;;;;;;29.70;18.08;;;;;;;-2.98;100.00;96580.59;4963848;28;20088;-57
2021/12/23 03:39:58;;;;;;;31.25;17.98;;;;;;;-3.46;100.00;96574.66;4967687;28;20086;-56
2021/12/23 03:42:26;;;;;;;32.95;18.65;;;;;;;-3.63;100.00;96571.84;4982037;28;20070;-56
2021/12/23 03:44:56;;;;;;;32.25;18.92;;;;;;;-3.49;100.00;96567.03;4981912;28;20073;-56
2021/12/23 03:47:25;;;;;;;32.95;19.95;;;;;;;-3.16;100.00;96561.53;4986752;28;20097;-52
2021/12/23 03:49:53;;;;;;;29.70;18.35;;;;;;;-3.27;100.00;96561.94;4988663;28;20178;-54
2021/12/23 03:52:21;;;;;;;30.70;18.77;;;;;;;-3.15;100.00;96560.59;4986341;28;20520;-53
2021/12/23 03:54:50;;;;;;;30.83;18.38;;;;;;;-2.89;100.00;96551.84;4984302;28;20092;-53
2021/12/23 03:57:18;;;;;;;30.02;18.85;;;;;;;-3.13;100.00;96553.66;4989077;28;20073;-56
2021/12/23 03:59:46;;;;;;;32.75;18.50;;;;;;;-3.39;100.00;96547.75;4992782;28;20069;-52
2021/12/23 04:02:17;;;;;;;33.85;18.90;;;;;;;-3.90;100.00;96551.31;4982746;28;20072;-54
2021/12/23 04:04:46;;;;;;;30.38;17.98;;;;;;;-3.82;100.00;96551.91;4976189;28;20066;-58
2021/12/23 04:07:16;;;;;;;32.00;18.52;;;;;;;-4.08;100.00;96546.84;4967808;28;20078;-55
2021/12/23 04:09:44;;;;;;;32.45;18.58;;;;;;;-3.33;100.00;96545.84;4989551;28;20124;-52
2021/12/23 04:12:13;;;;;;;32.67;18.10;;;;;;;-3.87;100.00;96534.94;4987296;28;20058;-51
2021/12/23 04:14:41;;;;;;;32.17;17.98;;;;;;;-4.24;100.00;96530.22;4998966;28;20069;-50
2021/12/23 04:17:09;;;;;;;31.10;18.52;;;;;;;-3.45;100.00;96523.94;4977876;28;20521;-52
2021/12/23 04:19:39;;;;;;;35.47;20.95;;;;;;;-3.12;100.00;96519.22;4970530;28;20149;-54
2021/12/23 04:22:08;;;;;;;33.53;20.50;;;;;;;-3.00;100.00;96512.75;4991041;28;20488;-54
2021/12/23 04:24:36;;;;;;;35.33;20.25;;;;;;;-2.98;100.00;96506.63;4960526;28;20070;-54
2021/12/23 04:27:05;;;;;;;31.58;19.15;;;;;;;-3.22;100.00;96497.28;4979662;28;20524;-50
2021/12/23 04:29:33;;;;;;;33.50;19.88;;;;;;;-3.26;100.00;96488.00;4977128;28;20073;-53
2021/12/23 04:32:02;;;;;;;31.73;19.45;;;;;;;-3.84;100.00;96499.59;4972699;28;20070;-51
2021/12/23 04:34:30;;;;;;;35.13;19.40;;;;;;;-3.41;100.00;96484.25;4979811;28;20081;-49
2021/12/23 04:37:00;;;;;;;31.02;18.35;;;;;;;-3.85;100.00;96481.63;4988102;28;22072;-53
2021/12/23 04:39:28;;;;;;;33.97;19.20;;;;;;;-3.80;100.00;96495.16;4986717;28;20062;-52
2021/12/23 04:41:57;;;;;;;159.85;75.45;;;;;;;-3.68;100.00;96484.41;4983056;28;20074;-50
2021/12/23 04:44:25;;;;;;;38.38;21.38;;;;;;;-3.77;100.00;96474.44;4990288;28;20690;-50
2021/12/23 04:46:53;;;;;;;31.83;18.70;;;;;;;-4.48;100.00;96477.88;4979225;28;20491;-54
2021/12/23 04:49:23;;;;;;;27.88;17.20;;;;;;;-4.80;100.00;96466.94;4960925;28;20086;-52
2021/12/23 04:51:51;;;;;;;30.23;18.63;;;;;;;-5.20;100.00;96465.66;4993045;28;20078;-53
2021/12/23 04:54:21;;;;;;;34.25;18.73;;;;;;;-5.14;100.00;96450.03;4986632;28;20100;-47
2021/12/23 04:56:50;;;;;;;31.58;18.95;;;;;;;-4.94;100.00;96451.97;4973072;28;20055;-51
2021/12/23 04:59:18;;;;;;;29.00;18.13;;;;;;;-4.34;100.00;96467.94;4975992;28;20123;-53
2021/12/23 05:01:46;;;;;;;28.02;17.73;;;;;;;-4.63;100.00;96469.78;4986368;28;20070;-51
2021/12/23 05:04:15;;;;;;;30.63;17.88;;;;;;;-4.72;100.00;96482.13;4987434;28;20508;-46
2021/12/23 05:06:43;;;;;;;30.60;17.83;;;;;;;-4.33;100.00;96483.34;4964183;28;20094;-47
2021/12/23 05:09:12;;;;;;;28.00;16.65;;;;;;;-4.29;100.00;96489.22;4984443;28;20062;-52
2021/12/23 05:11:44;;;;;;;28.33;17.08;;;;;;;-4.47;100.00;96489.84;4990496;28;20078;-49
2021/12/23 05:14:12;;;;;;;26.10;16.55;;;;;;;-4.43;100.00;96486.28;4971157;28;20308;-47
2021/12/23 05:16:41;;;;;;;28.67;17.20;;;;;;;-4.99;100.00;96473.56;4966067;28;20081;-51
2021/12/23 05:19:09;;;;;;;32.63;17.95;;;;;;;-4.64;100.00;96473.25;4983486;28;20058;-51
2021/12/23 05:21:38;;;;;;;30.13;17.40;;;;;;;-5.13;100.00;96468.88;4981497;28;20081;-51
2021/12/23 05:24:06;;;;;;;33.42;18.67;;;;;;;-5.18;100.00;96476.75;4977299;28;20066;-51
2021/12/23 05:26:35;;;;;;;33.20;17.90;;;;;;;-5.01;100.00;96474.47;4988554;28;20062;-52
2021/12/23 05:29:05;;;;;;;29.85;18.52;;;;;;;-5.02;100.00;96483.09;4996824;28;20508;-51
2021/12/23 05:31:33;;;;;;;33.13;19.88;;;;;;;-4.82;100.00;96476.44;4986202;28;20050;-50
2021/12/23 05:34:02;;;;;;;32.28;18.95;;;;;;;-4.54;100.00;96478.94;4987162;28;20096;-52
2021/12/23 05:36:30;;;;;;;37.35;20.23;;;;;;;-4.37;100.00;96471.47;4993674;28;20077;-54
2021/12/23 05:38:59;;;;;;;33.38;19.30;;;;;;;-4.41;100.00;96463.88;4984688;28;20089;-48
2021/12/23 05:41:27;;;;;;;39.47;20.90;;;;;;;-4.58;100.00;96460.19;4976538;28;20077;-53
2021/12/23 05:43:57;;;;;;;33.28;20.40;;;;;;;-4.82;100.00;96461.88;4967192;28;20074;-50
2021/12/23 05:46:27;;;;;;;35.00;19.20;;;;;;;-4.76;100.00;96465.94;4957319;28;20093;-53
2021/12/23 05:48:55;;;;;;;30.73;18.92;;;;;;;-4.67;100.00;96470.78;4962640;28;20552;-48
2021/12/23 05:51:23;;;;;;;35.50;18.77;;;;;;;-4.91;100.00;96469.88;4983554;28;20066;-47
2021/12/23 05:53:52;;;;;;;30.05;18.50;;;;;;;-4.77;100.00;96465.09;4987283;28;20066;-52
2021/12/23 05:56:21;;;;;;;28.77;18.08;;;;;;;-4.75;100.00;96457.31;4989684;28;20488;-47
2021/12/23 05:58:49;;;;;;;31.67;19.02;;;;;;;-5.31;100.00;96465.16;4988329;28;20666;-47
2021/12/23 06:01:17;;;;;;;31.85;19.80;;;;;;;-5.29;100.00;96459.09;4985202;28;20090;-54
2021/12/23 06:03:48;;;;;;;34.15;19.60;;;;;;;-5.37;100.00;96452.50;4986779;28;20082;-52
2021/12/23 06:06:16;;;;;;;30.25;19.05;;;;;;;-5.63;100.00;96455.91;4991602;28;20078;-51
2021/12/23 06:08:45;;;;;;;38.70;19.90;;;;;;;-5.83;100.00;96459.91;4996647;28;20073;-50
2021/12/23 06:11:13;;;;;;;32.97;19.58;;;;;;;-5.52;100.00;96448.69;4982963;28;20525;-50
2021/12/23 06:13:42;;;;;;;34.70;20.23;;;;;;;-5.15;100.00;96445.81;4990382;28;20071;-55
2021/12/23 06:16:10;;;;;;;34.10;19.17;;;;;;;-4.93;100.00;96442.53;4986605;28;20078;-54
2021/12/23 06:18:39;;;;;;;35.63;21.08;;;;;;;-5.50;100.00;96447.78;4987284;28;20463;-51
2021/12/23 06:21:08;;;;;;;35.30;21.35;;;;;;;-5.26;100.00;96438.44;4987664;28;20081;-55
2021/12/23 06:23:37;;;;;;;36.20;21.20;;;;;;;-5.40;100.00;96448.34;4992203;28;20084;-52
2021/12/23 06:26:06;;;;;;;34.60;20.20;;;;;;;-5.21;100.00;96447.72;4977924;28;20070;-59
2021/12/23 06:28:34;;;;;;;34.28;20.30;;;;;;;-5.09;100.00;96452.50;4963654;28;20058;-47
2021/12/23 06:31:02;;;;;;;56.90;27.58;;;;;;;-5.21;100.00;96448.56;4987225;28;20085;-49
2021/12/23 06:33:31;;;;;;;54.35;27.48;;;;;;;-5.15;100.00;96453.53;4987411;28;20069;-49
2021/12/23 06:35:59;;;;;;;70.05;34.35;;;;;;;-5.09;100.00;96457.63;4969549;28;20074;-51
2021/12/23 06:38:29;;;;;;;39.40;23.60;;;;;;;-5.37;100.00;96453.34;4962366;28;20078;-53
2021/12/23 06:40:58;;;;;;;42.53;24.98;;;;;;;-5.09;100.00;96453.31;4965487;28;20074;-54
2021/12/23 06:43:26;;;;;;;37.13;21.45;;;;;;;-4.81;100.00;96449.84;4964549;28;20082;-51
2021/12/23 06:45:54;;;;;;;36.83;21.05;;;;;;;-4.75;100.00;96449.59;4993017;28;20088;-49
2021/12/23 06:48:23;;;;;;;35.38;20.08;;;;;;;-4.88;100.00;96450.94;4985390;28;20082;-53
2021/12/23 06:50:54;;;;;;;34.65;20.35;;;;;;;-4.92;100.00;96450.22;4990683;28;20057;-51
2021/12/23 06:53:22;;;;;;;35.83;20.02;;;;;;;-4.82;100.00;96448.13;4986001;28;20069;-55
2021/12/23 06:55:52;;;;;;;32.88;19.65;;;;;;;-4.84;100.00;96450.78;4985399;28;20069;-50
2021/12/23 06:58:22;;;;;;;33.53;20.95;;;;;;;-5.20;100.00;96462.25;4985577;28;20086;-52
2021/12/23 07:00:51;;;;;;;32.60;20.58;;;;;;;-4.87;100.00;96443.16;4990520;28;20532;-53
2021/12/23 07:03:23;;;;;;;34.63;20.90;;;;;;;-4.88;100.00;96451.78;4985266;28;20062;-50
2021/12/23 07:05:56;;;;;;;33.63;20.10;;;;;;;-5.41;100.00;96463.78;4990337;28;20066;-53
2021/12/23 07:08:28;;;;;;;34.53;20.38;;;;;;;-5.32;100.00;96459.19;4992241;28;20631;-50
2021/12/23 07:10:58;;;;;;;36.30;19.70;;;;;;;-4.97;100.00;96458.94;4980338;28;20062;-53
2021/12/23 07:13:26;;;;;;;31.40;20.02;;;;;;;-4.79;100.00;96461.72;4984735;28;20089;-50
2021/12/23 07:15:56;;;;;;;34.28;20.00;;;;;;;-4.78;100.00;96470.31;4990271;28;20086;-52
2021/12/23 07:18:24;;;;;;;34.50;22.08;;;;;;;-5.24;100.00;96484.66;4990192;28;20066;-50
2021/12/23 07:20:53;;;;;;;33.95;19.45;;;;;;;-4.61;100.00;96482.59;4982882;28;20472;-50
2021/12/23 07:23:21;;;;;;;40.25;20.35;;;;;;;-4.43;100.00;96463.97;4989276;28;20069;-50
2021/12/23 07:25:49;;;;;;;36.25;20.38;;;;;;;-4.66;100.00;96457.03;4988354;28;20073;-50
2021/12/23 07:28:19;;;;;;;35.42;20.45;;;;;;;-3.99;100.00;96463.25;4987543;28;20086;-52
2021/12/23 07:30:48;;;;;;;35.65;18.48;;;;;;;-4.23;100.00;96459.81;4979139;28;20082;-50
2021/12/23 07:33:16;;;;;;;41.67;20.70;;;;;;;-3.90;100.00;96463.75;4989690;28;20066;-55
2021/12/23 07:35:45;;;;;;;42.13;22.38;;;;;;;-3.86;100.00;96464.47;4989677;28;20544;-54
2021/12/23 07:38:13;;;;;;;36.08;20.00;;;;;;;-3.78;100.00;96467.63;4976933;28;20533;-53
2021/12/23 07:40:42;;;;;;;35.83;19.35;;;;;;;-3.51;100.00;96465.75;4963318;28;20063;-50
2021/12/23 07:43:31;;;;;;;43.17;20.02;;;;;;;-3.53;100.00;96449.47;4967120;28;20093;-53
2021/12/23 07:46:01;;;;;;;41.25;19.80;;;;;;;-3.40;100.00;96447.28;4964654;28;21378;-50
2021/12/23 07:48:30;;;;;;;37.60;19.95;;;;;;;-3.39;100.00;96456.69;4981932;28;20072;-57
2021/12/23 07:50:59;;;;;;;35.38;19.40;;;;;;;-2.95;100.00;96454.06;4990149;28;20081;-51
2021/12/23 07:53:27;;;;;;;32.47;19.92;;;;;;;-2.84;100.00;96453.63;4984173;28;20092;-53
2021/12/23 07:55:56;;;;;;;35.20;19.90;;;;;;;-2.43;100.00;96451.88;4986819;28;20069;-54
2021/12/23 07:58:24;;;;;;;38.15;20.90;;;;;;;-2.41;100.00;96453.50;4982043;28;20085;-54
2021/12/23 08:00:52;;;;;;;35.03;19.92;;;;;;;-2.56;100.00;96459.31;4991314;28;20097;-45
2021/12/23 08:03:22;;;;;;;34.60;19.77;;;;;;;-2.24;100.00;96450.16;4966740;28;20450;-52
2021/12/23 08:06:06;;;;;;;34.42;19.67;;;;;;;-2.26;100.00;96446.00;4961211;28;20046;-58
2021/12/23 08:08:34;;;;;;;33.35;19.05;;;;;;;-2.36;100.00;96442.97;4958706;28;20063;-57
2021/12/23 08:11:02;;;;;;;39.45;20.48;;;;;;;-2.25;100.00;96439.91;4974351;28;20521;-57
2021/12/23 08:13:31;;;;;;;33.17;19.10;;;;;;;-1.90;100.00;96425.41;4990953;28;20082;-53
2021/12/23 08:16:00;;;;;;;35.53;19.02;;;;;;;-2.13;100.00;96425.63;4988821;28;20082;-50
2021/12/23 08:18:30;;;;;;;38.08;20.10;;;;;;;-1.46;100.00;96427.72;4994248;28;20098;-53
2021/12/23 08:20:59;;;;;;;39.65;19.60;;;;;;;-1.07;100.00;96406.84;4971896;28;20094;-50
2021/12/23 08:23:28;;;;;;;37.45;19.00;;;;;;;-0.89;100.00;96410.31;4967880;28;20109;-47
2021/12/23 08:26:02;;;;;;;42.03;20.17;;;;;;;-0.66;100.00;96416.06;4968069;28;20063;-52
2021/12/23 08:28:31;;;;;;;39.60;21.10;;;;;;;-0.61;100.00;96409.75;4966485;28;20488;-53
2021/12/23 08:31:00;;;;;;;39.83;19.98;;;;;;;-0.41;100.00;96410.47;4967328;28;20135;-50
2021/12/23 08:33:30;;;;;;;39.25;21.02;;;;;;;-0.12;100.00;96390.81;4967373;28;20066;-52
2021/12/23 08:35:58;;;;;;;40.58;21.30;;;;;;;0.05;100.00;96401.13;4967313;28;20078;-55
2021/12/23 08:38:27;;;;;;;45.65;21.70;;;;;;;0.22;100.00;96385.50;4968827;28;20066;-52
2021/12/23 08:40:56;;;;;;;42.88;21.30;;;;;;;-0.16;100.00;96391.91;4967755;28;20067;-50
2021/12/23 08:43:25;;;;;;;44.13;21.02;;;;;;;-0.22;100.00;96405.19;4966510;28;20067;-53
2021/12/23 08:45:53;;;;;;;69.82;33.90;;;;;;;-0.14;100.00;96397.84;4969028;28;20466;-54
2021/12/23 08:48:21;;;;;;;44.67;22.05;;;;;;;-0.42;100.00;96401.88;4983416;28;20638;-55
2021/12/23 08:50:52;;;;;;;42.83;20.98;;;;;;;-0.14;100.00;96397.84;4984922;28;20066;-50
2021/12/23 08:53:20;;;;;;;40.65;20.27;;;;;;;-0.17;100.00;96382.44;4990972;28;20068;-51
2021/12/23 08:55:49;;;;;;;46.20;21.75;;;;;;;0.45;100.00;96375.66;4987256;28;20077;-55
2021/12/23 08:58:17;;;;;;;43.67;22.35;;;;;;;-0.16;100.00;96384.13;4988096;28;20085;-54
2021/12/23 09:00:45;;;;;;;42.60;21.85;;;;;;;0.09;100.00;96381.91;4993458;28;20081;-52
2021/12/23 09:03:14;;;;;;;41.70;21.45;;;;;;;0.15;100.00;96368.63;4984322;28;20073;-45
2021/12/23 09:05:43;;;;;;;41.25;21.85;;;;;;;0.04;100.00;96372.72;4985797;28;20077;-53
2021/12/23 09:08:13;;;;;;;40.05;20.83;;;;;;;-0.26;100.00;96376.84;4990846;28;20070;-53
2021/12/23 09:10:41;;;;;;;36.63;20.63;;;;;;;0.08;100.00;96374.22;4982789;28;20066;-55
2021/12/23 09:13:10;;;;;;;43.00;21.88;;;;;;;0.09;100.00;96381.91;4966780;28;20075;-54
2021/12/23 09:15:38;;;;;;;40.53;20.52;;;;;;;0.19;100.00;96390.84;4964145;28;21456;-55
2021/12/23 09:18:07;;;;;;;40.95;20.65;;;;;;;0.38;100.00;96392.44;4964150;28;20085;-52
2021/12/23 09:20:36;;;;;;;38.22;20.27;;;;;;;0.66;100.00;96389.19;4983280;28;20070;-50
2021/12/23 09:23:07;;;;;;;40.22;21.10;;;;;;;0.34;100.00;96372.78;4984305;28;20062;-50
2021/12/23 09:25:37;;;;;;;41.25;22.05;;;;;;;0.68;100.00;96371.75;4981942;28;20071;-52
2021/12/23 09:28:21;;;;;;;39.72;20.80;;;;;;;0.85;100.00;96373.38;4969431;28;20529;-52
2021/12/23 09:33:37;;;;;;;43.78;21.50;;;;;;;0.98;100.00;96373.53;4964678;28;20066;-48
2021/12/23 09:36:06;;;;;;;42.70;20.95;;;;;;;1.27;100.00;96370.06;4964078;28;20078;-51
2021/12/23 09:38:34;;;;;;;40.88;21.73;;;;;;;1.34;100.00;96367.94;4977862;28;20461;-49
2021/12/23 09:41:07;;;;;;;43.28;21.10;;;;;;;0.98;100.00;96369.19;4988859;28;20058;-47
2021/12/23 09:43:36;;;;;;;41.90;21.65;;;;;;;0.66;100.00;96377.03;4988097;28;20069;-52
2021/12/23 09:46:05;;;;;;;39.50;20.77;;;;;;;0.99;100.00;96370.00;4988999;28;20078;-49
2021/12/23 09:48:34;;;;;;;40.65;20.95;;;;;;;1.36;100.00;96369.53;4990871;28;20077;-54
2021/12/23 09:51:05;;;;;;;37.08;20.73;;;;;;;1.21;100.00;96378.25;4984021;28;20081;-50
2021/12/23 09:53:37;;;;;;;40.88;21.52;;;;;;;1.49;100.00;96377.44;4972566;28;20093;-50
2021/12/23 09:56:07;;;;;;;42.70;21.50;;;;;;;1.55;100.00;96366.69;4974403;28;20062;-49
2021/12/23 09:58:36;;;;;;;40.90;21.63;;;;;;;1.56;100.00;96349.34;4987187;28;20061;-48
2021/12/23 10:01:05;;;;;;;39.28;20.88;;;;;;;1.80;100.00;96340.03;4992258;28;20088;-48
2021/12/23 10:03:37;;;;;;;39.47;21.02;;;;;;;2.02;100.00;96336.94;4987997;28;20070;-53
2021/12/23 10:06:05;;;;;;;40.80;20.65;;;;;;;2.41;100.00;96337.13;4992445;28;20078;-55
2021/12/23 10:08:34;;;;;;;34.42;20.02;;;;;;;1.92;100.00;96335.00;4986702;28;20187;-51
2021/12/23 10:11:10;;;;;;;37.33;19.80;;;;;;;2.48;100.00;96328.00;4976785;28;20135;-47
2021/12/23 10:31:26;;;;;;;26.13;17.17;;;;;;;2.73;100.00;96302.06;4987590;28;20459;-53
2021/12/23 10:37:14;;;;;;;26.10;16.55;;;;;;;3.05;100.00;96289.50;4932545;28;20475;-50
2021/12/23 10:39:44;;;;;;;27.60;15.65;;;;;;;2.87;100.00;96287.31;4983514;28;20084;-55
2021/12/23 10:42:15;;;;;;;24.00;15.45;;;;;;;3.52;100.00;96274.22;4986403;28;20061;-51
2021/12/23 10:44:48;;;;;;;;;;;;;;;3.46;100.00;96267.63;4985149;28;20086;-52
2021/12/23 10:47:33;;;;;;;21.63;14.73;;;;;;;3.64;100.00;96244.66;4990566;28;19956;-54
2021/12/23 10:50:17;;;;;;;24.05;15.55;;;;;;;3.96;100.00;96246.78;4979327;28;20633;-54
2021/12/23 10:52:53;;;;;;;22.42;15.40;;;;;;;3.91;100.00;96244.50;4959562;28;20063;-54
2021/12/23 10:58:15;;;;;;;26.02;16.15;;;;;;;4.03;100.00;96246.25;4988055;28;20085;-55
2021/12/23 11:00:46;;;;;;;25.08;15.48;;;;;;;4.34;100.00;96232.75;4981310;28;21452;-50
2021/12/23 11:03:21;;;;;;;21.23;14.10;;;;;;;3.91;100.00;96230.63;4983784;28;20062;-52
2021/12/23 11:06:02;;;;;;;24.30;15.77;;;;;;;3.90;100.00;96235.00;4985120;28;20065;-54
2021/12/23 11:08:39;;;;;;;23.02;15.10;;;;;;;3.36;100.00;96226.66;4985657;28;20501;-52
2021/12/23 11:37:04;;;;;;;20.52;14.10;;;;;;;3.79;100.00;96193.22;4991506;28;20118;-51
2021/12/23 11:39:49;;;;;;;24.58;15.15;;;;;;;3.91;100.00;96181.88;4987550;28;20073;-56
2021/12/23 11:42:27;;;;;;;22.33;14.32;;;;;;;3.63;100.00;96170.00;4988923;28;20559;-51
2021/12/23 11:44:56;;;;;;;25.63;14.68;;;;;;;4.19;100.00;96174.66;4987240;28;20080;-50
2021/12/23 11:47:25;;;;;;;21.45;14.55;;;;;;;4.27;100.00;96169.72;4977884;28;20066;-54
2021/12/23 11:49:53;;;;;;;19.35;12.93;;;;;;;4.75;100.00;96162.63;4974428;28;20547;-50
2021/12/23 11:52:23;;;;;;;24.52;17.52;;;;;;;4.39;100.00;96158.38;4995444;28;20094;-53
2021/12/23 11:54:51;;;;;;;31.13;21.63;;;;;;;4.63;100.00;96147.88;4988705;28;20085;-52
2021/12/23 11:57:23;;;;;;;28.90;17.58;;;;;;;4.40;100.00;96151.34;4993456;28;20066;-47
2021/12/23 12:00:03;;;;;;;25.02;17.80;;;;;;;4.39;100.00;96150.53;4990807;28;20066;-55
2021/12/23 12:02:32;;;;;;;28.42;16.38;;;;;;;5.09;100.00;96138.28;4993819;28;20081;-51
2021/12/23 12:05:05;;;;;;;21.10;13.93;;;;;;;4.62;100.00;96141.00;4981840;28;20077;-50
2021/12/23 12:07:35;;;;;;;57.10;26.77;;;;;;;5.14;100.00;96144.81;4979659;28;20074;-54
2021/12/23 12:10:06;;;;;;;20.63;14.20;;;;;;;5.15;100.00;96129.97;4970700;28;20109;-50
2021/12/23 12:12:38;;;;;;;26.70;15.30;;;;;;;5.22;100.00;96139.81;4964491;28;20081;-52
2021/12/23 12:15:07;;;;;;;23.33;14.27;;;;;;;5.00;100.00;96135.44;4986866;28;20093;-49
2021/12/23 12:17:40;;;;;;;18.63;13.75;;;;;;;5.21;100.00;96132.13;4993002;28;20568;-50
2021/12/23 12:20:22;;;;;;;23.63;13.88;;;;;;;5.54;100.00;96130.41;4976724;28;20066;-54